SAS7308 LGIR-ENGM
Flight info
| Callsign | SAS7308 |
|---|---|
| Flight time | N/A |
| Altitude | 34000 |
| Route | EPALO M749 MIL UL617 AKORO DCT NEVRA/N0441F350 DCT KOROS/N0449F360 UN133 GIKAS DCT ATFIR DCT LOMOS DCT VERIG DCT KELEL DCT LUSID DCT SABAK DCT LUNIP |
| Aircraft | A320/M-SDE3FGHIJ1RWXYZ/ALB1 |
Departure
| Time | 2026-05-07 14:28 |
|---|---|
| Airport | Heraklion International Nikos Kazantzakis Airport (LGIR) |
Arrival
| Time | N/A |
|---|---|
| Airport | Oslo-Gardermoen International Airport (ENGM) |
| Time | Latitude | Longitude | Altitude | Speed | Heading |
|---|---|---|---|---|---|
| 2026-05-07 14:22 | 35.33768 | 25.17411 | 92 ft | 0 kts | 275° |
| 2026-05-07 14:24 | 35.33770 | 25.17389 | 94 ft | 9 kts | 280° |
| 2026-05-07 14:24 | 35.33826 | 25.17370 | 91 ft | 10 kts | 5° |
| 2026-05-07 14:24 | 35.33902 | 25.17379 | 91 ft | 12 kts | 19° |
| 2026-05-07 14:25 | 35.33912 | 25.17516 | 91 ft | 20 kts | 97° |
| 2026-05-07 14:25 | 35.33896 | 25.17695 | 93 ft | 22 kts | 95° |
| 2026-05-07 14:25 | 35.33884 | 25.17884 | 95 ft | 23 kts | 94° |
| 2026-05-07 14:25 | 35.33874 | 25.18086 | 92 ft | 24 kts | 94° |
| 2026-05-07 14:26 | 35.33856 | 25.18296 | 92 ft | 26 kts | 96° |
| 2026-05-07 14:26 | 35.33842 | 25.18525 | 90 ft | 28 kts | 94° |
| 2026-05-07 14:26 | 35.33827 | 25.18763 | 90 ft | 29 kts | 95° |
| 2026-05-07 14:26 | 35.33849 | 25.18999 | 90 ft | 22 kts | 49° |
| 2026-05-07 14:27 | 35.33913 | 25.18949 | 89 ft | 14 kts | 272° |
| 2026-05-07 14:27 | 35.33928 | 25.18708 | 90 ft | 58 kts | 275° |
| 2026-05-07 14:27 | 35.33981 | 25.17961 | 95 ft | 115 kts | 275° |
| 2026-05-07 14:27 | 35.34070 | 25.16802 | 105 ft | 155 kts | 279° |
| 2026-05-07 14:28 | 35.34166 | 25.15472 | 625 ft | 155 kts | 277° |
| 2026-05-07 14:28 | 35.34493 | 25.14252 | 1161 ft | 155 kts | 314° |
| 2026-05-07 14:28 | 35.35392 | 25.13555 | 1581 ft | 159 kts | 345° |
| 2026-05-07 14:28 | 35.36528 | 25.13184 | 1770 ft | 180 kts | 346° |
| 2026-05-07 14:29 | 35.37816 | 25.12759 | 1962 ft | 203 kts | 346° |
| 2026-05-07 14:29 | 35.39268 | 25.12275 | 2155 ft | 228 kts | 345° |
| 2026-05-07 14:29 | 35.40878 | 25.11729 | 2487 ft | 252 kts | 344° |
| 2026-05-07 14:29 | 35.42608 | 25.11132 | 3096 ft | 263 kts | 344° |
| 2026-05-07 14:30 | 35.44388 | 25.10514 | 3886 ft | 268 kts | 343° |
| 2026-05-07 14:30 | 35.46172 | 25.09894 | 4693 ft | 271 kts | 343° |
| 2026-05-07 14:30 | 35.48006 | 25.09257 | 5443 ft | 277 kts | 343° |
| 2026-05-07 14:30 | 35.49877 | 25.08609 | 6248 ft | 280 kts | 343° |
| 2026-05-07 14:31 | 35.51763 | 25.07957 | 7035 ft | 282 kts | 344° |
| 2026-05-07 14:31 | 35.53651 | 25.07300 | 7847 ft | 282 kts | 343° |
| 2026-05-07 14:31 | 35.55550 | 25.06636 | 8667 ft | 282 kts | 343° |
| 2026-05-07 14:31 | 35.57446 | 25.05971 | 9444 ft | 284 kts | 343° |
| 2026-05-07 14:32 | 35.59333 | 25.05310 | 10172 ft | 286 kts | 343° |
| 2026-05-07 14:32 | 35.61315 | 25.04613 | 10437 ft | 307 kts | 343° |
| 2026-05-07 14:32 | 35.63445 | 25.03867 | 10612 ft | 327 kts | 343° |
| 2026-05-07 14:32 | 35.65670 | 25.03091 | 11102 ft | 334 kts | 343° |
| 2026-05-07 14:33 | 35.67892 | 25.02312 | 11712 ft | 337 kts | 342° |
| 2026-05-07 14:33 | 35.70161 | 25.01512 | 12365 ft | 340 kts | 342° |
| 2026-05-07 14:33 | 35.72434 | 25.00676 | 12999 ft | 342 kts | 340° |
| 2026-05-07 14:33 | 35.74685 | 24.99708 | 13646 ft | 343 kts | 338° |
| 2026-05-07 14:34 | 35.76922 | 24.98651 | 14263 ft | 345 kts | 336° |
| 2026-05-07 14:34 | 35.79172 | 24.97545 | 14809 ft | 348 kts | 336° |
| 2026-05-07 14:34 | 35.81431 | 24.96431 | 15338 ft | 351 kts | 336° |
| 2026-05-07 14:34 | 35.83694 | 24.95328 | 15861 ft | 354 kts | 336° |
| 2026-05-07 14:35 | 35.86013 | 24.94215 | 16378 ft | 358 kts | 336° |
| 2026-05-07 14:35 | 35.88356 | 24.93107 | 16912 ft | 361 kts | 336° |
| 2026-05-07 14:35 | 35.90717 | 24.91997 | 17434 ft | 364 kts | 336° |
| 2026-05-07 14:35 | 35.93101 | 24.90880 | 17959 ft | 367 kts | 336° |
| 2026-05-07 14:36 | 35.95469 | 24.89769 | 18478 ft | 371 kts | 336° |
| 2026-05-07 14:36 | 35.97892 | 24.88627 | 18983 ft | 373 kts | 336° |
| 2026-05-07 14:36 | 36.00328 | 24.87476 | 19535 ft | 374 kts | 336° |
| 2026-05-07 14:36 | 36.02759 | 24.86326 | 20102 ft | 375 kts | 336° |
| 2026-05-07 14:37 | 36.05207 | 24.85168 | 20669 ft | 375 kts | 335° |
| 2026-05-07 14:37 | 36.10075 | 24.82861 | 21760 ft | 377 kts | 335° |
| 2026-05-07 14:37 | 36.12535 | 24.81695 | 22284 ft | 378 kts | 335° |
| 2026-05-07 14:38 | 36.15002 | 24.80524 | 22790 ft | 379 kts | 335° |
| 2026-05-07 14:38 | 36.17471 | 24.79353 | 23289 ft | 381 kts | 335° |
| 2026-05-07 14:38 | 36.19927 | 24.78189 | 23759 ft | 382 kts | 335° |
| 2026-05-07 14:38 | 36.22419 | 24.77008 | 24162 ft | 383 kts | 335° |
| 2026-05-07 14:39 | 36.24925 | 24.75817 | 24503 ft | 386 kts | 335° |
| 2026-05-07 14:39 | 36.27440 | 24.74619 | 24867 ft | 388 kts | 335° |
| 2026-05-07 14:39 | 36.29965 | 24.73416 | 25235 ft | 389 kts | 335° |
| 2026-05-07 14:39 | 36.32506 | 24.72208 | 25601 ft | 391 kts | 335° |
| 2026-05-07 14:40 | 36.35021 | 24.71010 | 25956 ft | 392 kts | 335° |
| 2026-05-07 14:40 | 36.37579 | 24.69789 | 26311 ft | 394 kts | 335° |
| 2026-05-07 14:40 | 36.40145 | 24.68563 | 26658 ft | 395 kts | 335° |
| 2026-05-07 14:40 | 36.42721 | 24.67333 | 26999 ft | 396 kts | 335° |
| 2026-05-07 14:41 | 36.45300 | 24.66100 | 27338 ft | 398 kts | 334° |
| 2026-05-07 14:41 | 36.47888 | 24.64859 | 27694 ft | 400 kts | 334° |
| 2026-05-07 14:41 | 36.50490 | 24.63608 | 27990 ft | 402 kts | 334° |
| 2026-05-07 14:41 | 36.53111 | 24.62348 | 28314 ft | 404 kts | 334° |
| 2026-05-07 14:42 | 36.55713 | 24.61097 | 28642 ft | 405 kts | 334° |
| 2026-05-07 14:42 | 36.58354 | 24.59830 | 28972 ft | 406 kts | 334° |
| 2026-05-07 14:42 | 36.60994 | 24.58569 | 29443 ft | 404 kts | 334° |
| 2026-05-07 14:42 | 36.63625 | 24.57312 | 29939 ft | 402 kts | 334° |
| 2026-05-07 14:43 | 36.66206 | 24.56075 | 30391 ft | 400 kts | 334° |
| 2026-05-07 14:43 | 36.68791 | 24.54833 | 30855 ft | 396 kts | 334° |
| 2026-05-07 14:43 | 36.71357 | 24.53597 | 31329 ft | 392 kts | 333° |
| 2026-05-07 14:43 | 36.73905 | 24.52378 | 31817 ft | 390 kts | 335° |
| 2026-05-07 14:44 | 36.76529 | 24.51464 | 32241 ft | 393 kts | 341° |
| 2026-05-07 14:44 | 36.79163 | 24.50755 | 32696 ft | 390 kts | 341° |
| 2026-05-07 14:44 | 36.81803 | 24.50046 | 33175 ft | 386 kts | 341° |
| 2026-05-07 14:44 | 36.84452 | 24.49332 | 33677 ft | 382 kts | 340° |
| 2026-05-07 14:45 | 36.87013 | 24.48638 | 34057 ft | 380 kts | 340° |
| 2026-05-07 14:45 | 36.89602 | 24.47932 | 34129 ft | 382 kts | 340° |
| 2026-05-07 14:45 | 36.94822 | 24.46498 | 34139 ft | 384 kts | 340° |
| 2026-05-07 14:46 | 37.00053 | 24.45068 | 34137 ft | 388 kts | 340° |
| 2026-05-07 14:46 | 37.04467 | 24.43868 | 34141 ft | 390 kts | 340° |
| 2026-05-07 14:47 | 37.09786 | 24.42415 | 34141 ft | 390 kts | 340° |
| 2026-05-07 14:47 | 37.15059 | 24.40970 | 34137 ft | 390 kts | 340° |
| 2026-05-07 14:48 | 37.20416 | 24.39678 | 34149 ft | 397 kts | 348° |
| 2026-05-07 14:48 | 37.23215 | 24.39712 | 34139 ft | 408 kts | 358° |
| 2026-05-07 14:48 | 37.26009 | 24.40190 | 34144 ft | 411 kts | 359° |
| 2026-05-07 14:49 | 37.31696 | 24.41184 | 34134 ft | 412 kts | 359° |
| 2026-05-07 14:49 | 37.37389 | 24.42161 | 34126 ft | 412 kts | 359° |
| 2026-05-07 14:50 | 37.43085 | 24.43142 | 34136 ft | 413 kts | 359° |
| 2026-05-07 14:50 | 37.48764 | 24.44125 | 34132 ft | 415 kts | 359° |
| 2026-05-07 14:51 | 37.54506 | 24.45122 | 34117 ft | 416 kts | 359° |
| 2026-05-07 14:51 | 37.60254 | 24.46120 | 34129 ft | 417 kts | 359° |
| 2026-05-07 14:52 | 37.65970 | 24.47113 | 34142 ft | 417 kts | 359° |
| 2026-05-07 14:52 | 37.71711 | 24.48115 | 34151 ft | 416 kts | 359° |
| 2026-05-07 14:53 | 37.77457 | 24.49116 | 34141 ft | 416 kts | 359° |
| 2026-05-07 14:53 | 37.83198 | 24.50120 | 34172 ft | 415 kts | 358° |
| 2026-05-07 14:54 | 37.88895 | 24.51117 | 34148 ft | 415 kts | 358° |
| 2026-05-07 14:54 | 37.94635 | 24.52127 | 34143 ft | 414 kts | 358° |
| 2026-05-07 14:55 | 38.00310 | 24.53122 | 34138 ft | 414 kts | 358° |
| 2026-05-07 14:55 | 38.06025 | 24.54128 | 34128 ft | 414 kts | 358° |
| 2026-05-07 14:56 | 38.11749 | 24.55134 | 34119 ft | 414 kts | 359° |
| 2026-05-07 14:56 | 38.17438 | 24.56267 | 34127 ft | 422 kts | 5° |
| 2026-05-07 14:57 | 38.23124 | 24.58388 | 34136 ft | 425 kts | 7° |
| 2026-05-07 14:57 | 38.28802 | 24.60541 | 34143 ft | 425 kts | 8° |
| 2026-05-07 14:58 | 38.34461 | 24.62684 | 34132 ft | 426 kts | 8° |
| 2026-05-07 14:58 | 38.40143 | 24.64833 | 34128 ft | 426 kts | 8° |
| 2026-05-07 14:59 | 38.45835 | 24.66986 | 34132 ft | 426 kts | 8° |
| 2026-05-07 14:59 | 38.51504 | 24.69140 | 34120 ft | 427 kts | 9° |
| 2026-05-07 15:00 | 38.57218 | 24.71323 | 34120 ft | 428 kts | 9° |
| 2026-05-07 15:00 | 38.62924 | 24.73500 | 34121 ft | 428 kts | 9° |
| 2026-05-07 15:01 | 38.68661 | 24.75691 | 34105 ft | 431 kts | 11° |
| 2026-05-07 15:01 | 38.74420 | 24.77887 | 34097 ft | 433 kts | 11° |
| 2026-05-07 15:02 | 38.80205 | 24.80103 | 34103 ft | 435 kts | 11° |
| 2026-05-07 15:02 | 38.85983 | 24.82329 | 34107 ft | 437 kts | 13° |
| 2026-05-07 15:03 | 38.91830 | 24.84582 | 34095 ft | 439 kts | 13° |
| 2026-05-07 15:03 | 38.97669 | 24.86833 | 34102 ft | 440 kts | 13° |
| 2026-05-07 15:04 | 39.03565 | 24.89096 | 34117 ft | 441 kts | 12° |
| 2026-05-07 15:04 | 39.09562 | 24.89911 | 34103 ft | 434 kts | 352° |
| 2026-05-07 15:05 | 39.15386 | 24.88195 | 34106 ft | 427 kts | 334° |
| 2026-05-07 15:05 | 39.20742 | 24.84907 | 34105 ft | 426 kts | 331° |
| 2026-05-07 15:06 | 39.26066 | 24.81605 | 34116 ft | 427 kts | 332° |
| 2026-05-07 15:06 | 39.31449 | 24.78269 | 34109 ft | 429 kts | 332° |
| 2026-05-07 15:07 | 39.36835 | 24.74915 | 34111 ft | 430 kts | 332° |
| 2026-05-07 15:07 | 39.42195 | 24.71563 | 34118 ft | 430 kts | 331° |
| 2026-05-07 15:08 | 39.47588 | 24.68186 | 34126 ft | 430 kts | 332° |
| 2026-05-07 15:08 | 39.53121 | 24.65255 | 34125 ft | 433 kts | 339° |
| 2026-05-07 15:09 | 39.58837 | 24.62655 | 34112 ft | 434 kts | 338° |
| 2026-05-07 15:09 | 39.64513 | 24.60070 | 34115 ft | 435 kts | 338° |
| 2026-05-07 15:10 | 39.70227 | 24.57459 | 34116 ft | 435 kts | 338° |
| 2026-05-07 15:10 | 39.75941 | 24.54833 | 34131 ft | 435 kts | 338° |
| 2026-05-07 15:11 | 39.81626 | 24.52223 | 34132 ft | 435 kts | 338° |
| 2026-05-07 15:11 | 39.87349 | 24.49592 | 34130 ft | 435 kts | 338° |
| 2026-05-07 15:12 | 39.93069 | 24.46947 | 34135 ft | 435 kts | 338° |
| 2026-05-07 15:12 | 39.98746 | 24.44317 | 34128 ft | 436 kts | 338° |
| 2026-05-07 15:13 | 40.04481 | 24.41662 | 34121 ft | 436 kts | 338° |
| 2026-05-07 15:13 | 40.10177 | 24.39028 | 34122 ft | 436 kts | 338° |
| 2026-05-07 15:14 | 40.15928 | 24.36367 | 34121 ft | 438 kts | 338° |
| 2026-05-07 15:14 | 40.21680 | 24.33692 | 34115 ft | 439 kts | 338° |
| 2026-05-07 15:15 | 40.27411 | 24.31014 | 34113 ft | 440 kts | 338° |
| 2026-05-07 15:15 | 40.33189 | 24.28319 | 34114 ft | 440 kts | 338° |
| 2026-05-07 15:16 | 40.38964 | 24.25615 | 34123 ft | 440 kts | 338° |
| 2026-05-07 15:16 | 40.44722 | 24.22919 | 34120 ft | 441 kts | 338° |
| 2026-05-07 15:17 | 40.50525 | 24.20199 | 34115 ft | 442 kts | 338° |
| 2026-05-07 15:17 | 40.56294 | 24.17482 | 34114 ft | 443 kts | 338° |
| 2026-05-07 15:18 | 40.62102 | 24.14749 | 34122 ft | 443 kts | 338° |
| 2026-05-07 15:18 | 40.67919 | 24.12015 | 34126 ft | 443 kts | 337° |
| 2026-05-07 15:19 | 40.73712 | 24.09275 | 34124 ft | 444 kts | 337° |
| 2026-05-07 15:19 | 40.79539 | 24.06512 | 34130 ft | 444 kts | 337° |
| 2026-05-07 15:20 | 40.85363 | 24.03750 | 34138 ft | 444 kts | 337° |
| 2026-05-07 15:20 | 40.91150 | 24.00997 | 34133 ft | 444 kts | 337° |
| 2026-05-07 15:21 | 40.96979 | 23.98216 | 34127 ft | 444 kts | 337° |
| 2026-05-07 15:21 | 41.02762 | 23.95453 | 34125 ft | 444 kts | 337° |
| 2026-05-07 15:22 | 41.08588 | 23.92669 | 34135 ft | 444 kts | 337° |
| 2026-05-07 15:22 | 41.14405 | 23.89890 | 34134 ft | 443 kts | 337° |
| 2026-05-07 15:23 | 41.20182 | 23.87118 | 34121 ft | 443 kts | 336° |
| 2026-05-07 15:23 | 41.26008 | 23.84309 | 34116 ft | 443 kts | 336° |
| 2026-05-07 15:24 | 41.31785 | 23.81518 | 34136 ft | 444 kts | 336° |
| 2026-05-07 15:24 | 41.37592 | 23.78714 | 34139 ft | 444 kts | 336° |
| 2026-05-07 15:25 | 41.43630 | 23.76745 | 34137 ft | 449 kts | 348° |
| 2026-05-07 15:25 | 41.49790 | 23.75477 | 34134 ft | 449 kts | 347° |
| 2026-05-07 15:26 | 41.55983 | 23.74184 | 34143 ft | 450 kts | 347° |
| 2026-05-07 15:26 | 41.62141 | 23.72892 | 34134 ft | 450 kts | 348° |
| 2026-05-07 15:27 | 41.68344 | 23.71601 | 34137 ft | 450 kts | 348° |
| 2026-05-07 15:27 | 41.74561 | 23.70309 | 34135 ft | 451 kts | 347° |
| 2026-05-07 15:28 | 41.80743 | 23.69007 | 34142 ft | 451 kts | 347° |
| 2026-05-07 15:28 | 41.86921 | 23.67701 | 34143 ft | 451 kts | 347° |
| 2026-05-07 15:29 | 41.93155 | 23.66387 | 34148 ft | 451 kts | 347° |
| 2026-05-07 15:29 | 41.99330 | 23.65091 | 34150 ft | 451 kts | 347° |
| 2026-05-07 15:30 | 42.05536 | 23.63783 | 34140 ft | 451 kts | 347° |
| 2026-05-07 15:30 | 42.11739 | 23.62465 | 34142 ft | 450 kts | 347° |
| 2026-05-07 15:31 | 42.16894 | 23.61368 | 34150 ft | 450 kts | 347° |
| 2026-05-07 15:31 | 42.24095 | 23.59833 | 34142 ft | 450 kts | 347° |
| 2026-05-07 15:32 | 42.29248 | 23.58736 | 34133 ft | 450 kts | 347° |
| 2026-05-07 15:32 | 42.35436 | 23.57412 | 34131 ft | 450 kts | 347° |
| 2026-05-07 15:33 | 42.41628 | 23.56083 | 34129 ft | 450 kts | 347° |
| 2026-05-07 15:33 | 42.47780 | 23.54765 | 34127 ft | 449 kts | 347° |
| 2026-05-07 15:34 | 42.53965 | 23.53441 | 34125 ft | 450 kts | 347° |
| 2026-05-07 15:34 | 42.60153 | 23.52109 | 34118 ft | 450 kts | 347° |
| 2026-05-07 15:35 | 42.66313 | 23.50783 | 34121 ft | 451 kts | 347° |
| 2026-05-07 15:35 | 42.72530 | 23.49438 | 34110 ft | 452 kts | 347° |
| 2026-05-07 15:36 | 42.78746 | 23.48078 | 34115 ft | 452 kts | 347° |
| 2026-05-07 15:36 | 42.84965 | 23.46720 | 34112 ft | 452 kts | 347° |
| 2026-05-07 15:37 | 42.91152 | 23.45385 | 34108 ft | 452 kts | 347° |
| 2026-05-07 15:37 | 42.97368 | 23.44040 | 34119 ft | 451 kts | 347° |
| 2026-05-07 15:38 | 43.03576 | 23.42686 | 34112 ft | 451 kts | 347° |
| 2026-05-07 15:38 | 43.09780 | 23.41330 | 34101 ft | 452 kts | 347° |
| 2026-05-07 15:39 | 43.15965 | 23.39974 | 34106 ft | 451 kts | 347° |
| 2026-05-07 15:39 | 43.22172 | 23.38602 | 34112 ft | 450 kts | 347° |
| 2026-05-07 15:40 | 43.28333 | 23.37239 | 34100 ft | 450 kts | 347° |
| 2026-05-07 15:40 | 43.34525 | 23.35881 | 34102 ft | 450 kts | 347° |
| 2026-05-07 15:41 | 43.40698 | 23.34523 | 34096 ft | 449 kts | 347° |
| 2026-05-07 15:41 | 43.46887 | 23.33150 | 34093 ft | 449 kts | 347° |
| 2026-05-07 15:42 | 43.53065 | 23.31771 | 34089 ft | 449 kts | 347° |
| 2026-05-07 15:42 | 43.59195 | 23.30402 | 34085 ft | 448 kts | 347° |
| 2026-05-07 15:43 | 43.65366 | 23.29028 | 34087 ft | 448 kts | 347° |
| 2026-05-07 15:43 | 43.71524 | 23.27657 | 34097 ft | 448 kts | 347° |
| 2026-05-07 15:44 | 43.77651 | 23.26285 | 34079 ft | 448 kts | 347° |
| 2026-05-07 15:44 | 43.83793 | 23.24778 | 34077 ft | 445 kts | 341° |
| 2026-05-07 15:45 | 43.89719 | 23.22246 | 34077 ft | 444 kts | 339° |
| 2026-05-07 15:45 | 43.95593 | 23.19718 | 34070 ft | 444 kts | 339° |
| 2026-05-07 15:46 | 44.04466 | 23.15898 | 34082 ft | 444 kts | 339° |
| 2026-05-07 15:47 | 44.10352 | 23.13345 | 34061 ft | 446 kts | 339° |
| 2026-05-07 15:47 | 44.16294 | 23.10765 | 34055 ft | 448 kts | 339° |
| 2026-05-07 15:48 | 44.22256 | 23.08173 | 34062 ft | 448 kts | 339° |
| 2026-05-07 15:48 | 44.28231 | 23.05572 | 34073 ft | 448 kts | 339° |
| 2026-05-07 15:49 | 44.34150 | 23.02988 | 34077 ft | 448 kts | 339° |
| 2026-05-07 15:49 | 44.40121 | 23.00369 | 34066 ft | 450 kts | 338° |
| 2026-05-07 15:50 | 44.46113 | 22.97741 | 34053 ft | 452 kts | 338° |
| 2026-05-07 15:50 | 44.52138 | 22.95098 | 34053 ft | 454 kts | 338° |
| 2026-05-07 15:51 | 44.58145 | 22.92449 | 34059 ft | 455 kts | 338° |
| 2026-05-07 15:51 | 44.64200 | 22.89773 | 34073 ft | 455 kts | 338° |
| 2026-05-07 15:52 | 44.70215 | 22.87120 | 34085 ft | 455 kts | 339° |
| 2026-05-07 15:52 | 44.76260 | 22.84441 | 34101 ft | 454 kts | 338° |
| 2026-05-07 15:53 | 44.82280 | 22.81752 | 34095 ft | 454 kts | 338° |
| 2026-05-07 15:53 | 44.88306 | 22.79065 | 34102 ft | 453 kts | 338° |
| 2026-05-07 15:54 | 44.94320 | 22.76385 | 34100 ft | 453 kts | 338° |
| 2026-05-07 15:54 | 45.00304 | 22.73712 | 34130 ft | 453 kts | 338° |
| 2026-05-07 15:55 | 45.06311 | 22.71016 | 34111 ft | 453 kts | 338° |